sensor_id;sensor_type;location;lat;lon;timestamp;temperature;humidity
4962;DHT22;2496;52.468;13.342;2023-09-19T00:02:01;18.60;99.90
4962;DHT22;2496;52.468;13.342;2023-09-19T00:04:32;18.60;99.90
4962;DHT22;2496;52.468;13.342;2023-09-19T00:06:59;18.60;99.90
4962;DHT22;2496;52.468;13.342;2023-09-19T00:09:28;18.60;99.90
4962;DHT22;2496;52.468;13.342;2023-09-19T00:11:55;18.50;99.90
4962;DHT22;2496;52.468;13.342;2023-09-19T00:14:25;18.50;99.90
4962;DHT22;2496;52.468;13.342;2023-09-19T00:16:52;18.50;99.90
4962;DHT22;2496;52.468;13.342;2023-09-19T00:19:20;18.50;99.90
4962;DHT22;2496;52.468;13.342;2023-09-19T00:21:48;18.50;99.90
4962;DHT22;2496;52.468;13.342;2023-09-19T00:24:15;18.50;99.90
4962;DHT22;2496;52.468;13.342;2023-09-19T00:26:43;18.40;99.90
4962;DHT22;2496;52.468;13.342;2023-09-19T00:29:12;18.40;99.90
4962;DHT22;2496;52.468;13.342;2023-09-19T00:31:43;18.40;99.90
4962;DHT22;2496;52.468;13.342;2023-09-19T00:34:10;18.40;99.90
4962;DHT22;2496;52.468;13.342;2023-09-19T00:36:37;18.40;99.90
4962;DHT22;2496;52.468;13.342;2023-09-19T00:39:10;18.40;99.90
4962;DHT22;2496;52.468;13.342;2023-09-19T00:41:37;18.40;99.90
4962;DHT22;2496;52.468;13.342;2023-09-19T00:44:04;18.40;99.90
4962;DHT22;2496;52.468;13.342;2023-09-19T00:46:35;18.40;99.90
4962;DHT22;2496;52.468;13.342;2023-09-19T00:49:02;18.40;99.90
4962;DHT22;2496;52.468;13.342;2023-09-19T00:51:30;18.30;99.90
4962;DHT22;2496;52.468;13.342;2023-09-19T00:53:57;18.30;99.90
4962;DHT22;2496;52.468;13.342;2023-09-19T00:56:27;18.30;99.90
4962;DHT22;2496;52.468;13.342;2023-09-19T00:58:54;18.30;99.90
4962;DHT22;2496;52.468;13.342;2023-09-19T01:01:21;18.20;99.90
4962;DHT22;2496;52.468;13.342;2023-09-19T01:03:49;18.30;99.90
4962;DHT22;2496;52.468;13.342;2023-09-19T01:06:16;18.30;99.90
4962;DHT22;2496;52.468;13.342;2023-09-19T01:08:44;18.20;99.90
4962;DHT22;2496;52.468;13.342;2023-09-19T01:11:14;18.20;99.90
4962;DHT22;2496;52.468;13.342;2023-09-19T01:13:55;18.20;99.90
4962;DHT22;2496;52.468;13.342;2023-09-19T01:16:32;18.20;99.90
4962;DHT22;2496;52.468;13.342;2023-09-19T01:19:22;18.20;99.90
4962;DHT22;2496;52.468;13.342;2023-09-19T01:21:57;18.20;99.90
4962;DHT22;2496;52.468;13.342;2023-09-19T01:25:03;18.20;99.90
4962;DHT22;2496;52.468;13.342;2023-09-19T01:28:01;18.20;99.90
4962;DHT22;2496;52.468;13.342;2023-09-19T01:30:39;18.20;99.90
4962;DHT22;2496;52.468;13.342;2023-09-19T01:33:06;18.20;99.90
4962;DHT22;2496;52.468;13.342;2023-09-19T01:35:33;18.20;99.90
4962;DHT22;2496;52.468;13.342;2023-09-19T01:38:04;18.20;99.90
4962;DHT22;2496;52.468;13.342;2023-09-19T01:40:34;18.20;99.90
4962;DHT22;2496;52.468;13.342;2023-09-19T01:43:09;18.20;99.90
4962;DHT22;2496;52.468;13.342;2023-09-19T01:45:46;18.20;99.90
4962;DHT22;2496;52.468;13.342;2023-09-19T01:48:25;18.20;99.90
4962;DHT22;2496;52.468;13.342;2023-09-19T01:51:00;18.30;99.90
4962;DHT22;2496;52.468;13.342;2023-09-19T01:53:33;18.20;99.90
4962;DHT22;2496;52.468;13.342;2023-09-19T01:56:01;18.30;99.90
4962;DHT22;2496;52.468;13.342;2023-09-19T01:58:32;18.30;99.90
4962;DHT22;2496;52.468;13.342;2023-09-19T02:01:02;18.20;99.90
4962;DHT22;2496;52.468;13.342;2023-09-19T02:03:32;18.30;99.90
4962;DHT22;2496;52.468;13.342;2023-09-19T02:06:00;18.20;99.90
4962;DHT22;2496;52.468;13.342;2023-09-19T02:08:29;18.20;99.90
4962;DHT22;2496;52.468;13.342;2023-09-19T02:10:59;18.20;99.90
4962;DHT22;2496;52.468;13.342;2023-09-19T02:13:26;18.20;99.90
4962;DHT22;2496;52.468;13.342;2023-09-19T02:15:54;18.20;99.90
4962;DHT22;2496;52.468;13.342;2023-09-19T02:18:22;18.10;99.90
4962;DHT22;2496;52.468;13.342;2023-09-19T02:20:49;18.10;99.90
4962;DHT22;2496;52.468;13.342;2023-09-19T02:23:18;18.10;99.90
4962;DHT22;2496;52.468;13.342;2023-09-19T02:25:52;18.10;99.90
4962;DHT22;2496;52.468;13.342;2023-09-19T02:28:19;18.10;99.90
4962;DHT22;2496;52.468;13.342;2023-09-19T02:30:47;18.10;99.90
4962;DHT22;2496;52.468;13.342;2023-09-19T02:33:16;18.10;99.90
4962;DHT22;2496;52.468;13.342;2023-09-19T02:35:45;18.10;99.90
4962;DHT22;2496;52.468;13.342;2023-09-19T02:38:12;18.10;99.90
4962;DHT22;2496;52.468;13.342;2023-09-19T02:40:40;18.00;99.90
4962;DHT22;2496;52.468;13.342;2023-09-19T02:43:09;18.00;99.90
4962;DHT22;2496;52.468;13.342;2023-09-19T02:45:36;18.00;99.90
4962;DHT22;2496;52.468;13.342;2023-09-19T02:48:04;18.00;99.90
4962;DHT22;2496;52.468;13.342;2023-09-19T02:50:31;18.00;99.90
4962;DHT22;2496;52.468;13.342;2023-09-19T02:53:00;18.00;99.90
4962;DHT22;2496;52.468;13.342;2023-09-19T02:55:29;18.00;99.90
4962;DHT22;2496;52.468;13.342;2023-09-19T02:57:57;18.00;99.90
4962;DHT22;2496;52.468;13.342;2023-09-19T03:00:24;18.00;99.90
4962;DHT22;2496;52.468;13.342;2023-09-19T03:02:54;17.90;99.90
4962;DHT22;2496;52.468;13.342;2023-09-19T03:05:22;17.90;99.90
4962;DHT22;2496;52.468;13.342;2023-09-19T03:07:50;17.90;99.90
4962;DHT22;2496;52.468;13.342;2023-09-19T03:10:19;17.90;99.90
4962;DHT22;2496;52.468;13.342;2023-09-19T03:12:47;17.90;99.90
4962;DHT22;2496;52.468;13.342;2023-09-19T03:15:14;17.90;99.90
4962;DHT22;2496;52.468;13.342;2023-09-19T03:17:43;18.00;99.90
4962;DHT22;2496;52.468;13.342;2023-09-19T03:20:11;18.00;99.90
4962;DHT22;2496;52.468;13.342;2023-09-19T03:22:39;17.90;99.90
4962;DHT22;2496;52.468;13.342;2023-09-19T03:25:07;17.90;99.90
4962;DHT22;2496;52.468;13.342;2023-09-19T03:27:37;17.90;99.90
4962;DHT22;2496;52.468;13.342;2023-09-19T03:30:05;17.90;99.90
4962;DHT22;2496;52.468;13.342;2023-09-19T03:32:34;17.90;99.90
4962;DHT22;2496;52.468;13.342;2023-09-19T03:35:01;17.90;99.90
4962;DHT22;2496;52.468;13.342;2023-09-19T03:37:31;17.90;99.90
4962;DHT22;2496;52.468;13.342;2023-09-19T03:39:58;17.90;99.90
4962;DHT22;2496;52.468;13.342;2023-09-19T03:42:30;18.00;99.90
4962;DHT22;2496;52.468;13.342;2023-09-19T03:44:58;17.90;99.90
4962;DHT22;2496;52.468;13.342;2023-09-19T03:47:31;17.90;99.90
4962;DHT22;2496;52.468;13.342;2023-09-19T03:49:58;17.90;99.90
4962;DHT22;2496;52.468;13.342;2023-09-19T03:52:25;17.90;99.90
4962;DHT22;2496;52.468;13.342;2023-09-19T03:54:52;17.90;99.90
4962;DHT22;2496;52.468;13.342;2023-09-19T03:57:25;17.90;99.90
4962;DHT22;2496;52.468;13.342;2023-09-19T03:59:53;17.90;99.90
4962;DHT22;2496;52.468;13.342;2023-09-19T04:02:22;17.80;99.90
4962;DHT22;2496;52.468;13.342;2023-09-19T04:04:50;17.80;99.90
4962;DHT22;2496;52.468;13.342;2023-09-19T04:07:18;17.80;99.90
4962;DHT22;2496;52.468;13.342;2023-09-19T04:09:47;17.80;99.90
4962;DHT22;2496;52.468;13.342;2023-09-19T04:12:15;17.80;99.90
4962;DHT22;2496;52.468;13.342;2023-09-19T04:14:44;17.80;99.90
4962;DHT22;2496;52.468;13.342;2023-09-19T04:17:11;17.80;99.90
4962;DHT22;2496;52.468;13.342;2023-09-19T04:19:39;17.80;99.90
4962;DHT22;2496;52.468;13.342;2023-09-19T04:22:07;17.80;99.90
4962;DHT22;2496;52.468;13.342;2023-09-19T04:24:34;17.80;99.90
4962;DHT22;2496;52.468;13.342;2023-09-19T04:27:01;17.80;99.90
4962;DHT22;2496;52.468;13.342;2023-09-19T04:29:28;17.80;99.90
4962;DHT22;2496;52.468;13.342;2023-09-19T04:31:55;17.80;99.90
4962;DHT22;2496;52.468;13.342;2023-09-19T04:34:23;17.80;99.90
4962;DHT22;2496;52.468;13.342;2023-09-19T04:36:51;17.80;99.90
4962;DHT22;2496;52.468;13.342;2023-09-19T04:39:19;17.80;99.90
4962;DHT22;2496;52.468;13.342;2023-09-19T04:41:46;17.80;99.90
4962;DHT22;2496;52.468;13.342;2023-09-19T04:44:13;17.80;99.90
4962;DHT22;2496;52.468;13.342;2023-09-19T04:46:41;17.70;99.90
4962;DHT22;2496;52.468;13.342;2023-09-19T04:49:08;17.70;99.90
4962;DHT22;2496;52.468;13.342;2023-09-19T04:51:35;17.70;99.90
4962;DHT22;2496;52.468;13.342;2023-09-19T04:54:03;17.70;99.90
4962;DHT22;2496;52.468;13.342;2023-09-19T04:56:31;17.70;99.90
4962;DHT22;2496;52.468;13.342;2023-09-19T04:58:59;17.70;99.90
4962;DHT22;2496;52.468;13.342;2023-09-19T05:01:26;17.70;99.90
4962;DHT22;2496;52.468;13.342;2023-09-19T05:03:53;17.70;99.90
4962;DHT22;2496;52.468;13.342;2023-09-19T05:06:21;17.70;99.90
4962;DHT22;2496;52.468;13.342;2023-09-19T05:08:52;17.70;99.90
4962;DHT22;2496;52.468;13.342;2023-09-19T05:11:20;17.60;99.90
4962;DHT22;2496;52.468;13.342;2023-09-19T05:13:48;17.60;99.90
4962;DHT22;2496;52.468;13.342;2023-09-19T05:16:16;17.60;99.90
4962;DHT22;2496;52.468;13.342;2023-09-19T05:18:43;17.60;99.90
4962;DHT22;2496;52.468;13.342;2023-09-19T05:21:10;17.60;99.90
4962;DHT22;2496;52.468;13.342;2023-09-19T05:23:37;17.60;99.90
4962;DHT22;2496;52.468;13.342;2023-09-19T05:26:04;17.60;99.90
4962;DHT22;2496;52.468;13.342;2023-09-19T05:28:33;17.60;99.90
4962;DHT22;2496;52.468;13.342;2023-09-19T05:31:00;17.60;99.90
4962;DHT22;2496;52.468;13.342;2023-09-19T05:33:28;17.50;99.90
4962;DHT22;2496;52.468;13.342;2023-09-19T05:35:57;17.60;99.90
4962;DHT22;2496;52.468;13.342;2023-09-19T05:38:24;17.60;99.90
4962;DHT22;2496;52.468;13.342;2023-09-19T05:40:53;17.60;99.90
4962;DHT22;2496;52.468;13.342;2023-09-19T05:43:20;17.60;99.90
4962;DHT22;2496;52.468;13.342;2023-09-19T05:45:48;17.50;99.90
4962;DHT22;2496;52.468;13.342;2023-09-19T05:48:17;17.60;99.90
4962;DHT22;2496;52.468;13.342;2023-09-19T05:50:45;17.60;99.90
4962;DHT22;2496;52.468;13.342;2023-09-19T05:53:14;17.60;99.90
4962;DHT22;2496;52.468;13.342;2023-09-19T05:55:41;17.60;99.90
4962;DHT22;2496;52.468;13.342;2023-09-19T05:58:08;17.60;99.90
4962;DHT22;2496;52.468;13.342;2023-09-19T06:00:39;17.60;99.90
4962;DHT22;2496;52.468;13.342;2023-09-19T06:03:10;17.60;99.90
4962;DHT22;2496;52.468;13.342;2023-09-19T06:05:37;17.60;99.90
4962;DHT22;2496;52.468;13.342;2023-09-19T06:08:06;17.60;99.90
4962;DHT22;2496;52.468;13.342;2023-09-19T06:10:35;17.60;99.90
4962;DHT22;2496;52.468;13.342;2023-09-19T06:13:02;17.60;99.90
4962;DHT22;2496;52.468;13.342;2023-09-19T06:15:31;17.60;99.90
4962;DHT22;2496;52.468;13.342;2023-09-19T06:18:01;17.60;99.90
4962;DHT22;2496;52.468;13.342;2023-09-19T06:20:31;17.60;99.90
4962;DHT22;2496;52.468;13.342;2023-09-19T06:22:58;17.60;99.90
4962;DHT22;2496;52.468;13.342;2023-09-19T06:25:27;17.70;99.90
4962;DHT22;2496;52.468;13.342;2023-09-19T06:27:54;17.80;99.90
4962;DHT22;2496;52.468;13.342;2023-09-19T06:30:23;17.80;99.90
4962;DHT22;2496;52.468;13.342;2023-09-19T06:32:58;17.80;99.90
4962;DHT22;2496;52.468;13.342;2023-09-19T06:35:27;17.80;99.90
4962;DHT22;2496;52.468;13.342;2023-09-19T06:37:56;17.90;99.90
4962;DHT22;2496;52.468;13.342;2023-09-19T06:40:24;18.00;99.90
4962;DHT22;2496;52.468;13.342;2023-09-19T06:42:51;18.00;99.90
4962;DHT22;2496;52.468;13.342;2023-09-19T06:45:19;18.10;99.90
4962;DHT22;2496;52.468;13.342;2023-09-19T06:47:48;18.20;99.90
4962;DHT22;2496;52.468;13.342;2023-09-19T06:50:16;18.30;99.90
4962;DHT22;2496;52.468;13.342;2023-09-19T06:52:47;18.40;99.90
4962;DHT22;2496;52.468;13.342;2023-09-19T06:55:17;18.40;99.90
4962;DHT22;2496;52.468;13.342;2023-09-19T06:57:45;18.50;99.90
4962;DHT22;2496;52.468;13.342;2023-09-19T07:00:13;18.60;99.90
4962;DHT22;2496;52.468;13.342;2023-09-19T07:02:43;18.70;99.90
4962;DHT22;2496;52.468;13.342;2023-09-19T07:05:11;18.80;99.90
4962;DHT22;2496;52.468;13.342;2023-09-19T07:07:38;18.90;99.90
4962;DHT22;2496;52.468;13.342;2023-09-19T07:10:06;19.00;99.90
4962;DHT22;2496;52.468;13.342;2023-09-19T07:12:35;19.20;99.90
4962;DHT22;2496;52.468;13.342;2023-09-19T07:15:02;19.30;99.90
4962;DHT22;2496;52.468;13.342;2023-09-19T07:17:31;19.50;99.90
4962;DHT22;2496;52.468;13.342;2023-09-19T07:19:58;19.60;99.90
4962;DHT22;2496;52.468;13.342;2023-09-19T07:22:26;19.70;99.90
4962;DHT22;2496;52.468;13.342;2023-09-19T07:24:53;19.70;99.90
4962;DHT22;2496;52.468;13.342;2023-09-19T07:27:20;19.70;99.90
4962;DHT22;2496;52.468;13.342;2023-09-19T07:29:49;19.70;99.90
4962;DHT22;2496;52.468;13.342;2023-09-19T07:32:16;19.60;99.90
4962;DHT22;2496;52.468;13.342;2023-09-19T07:34:43;19.60;99.90
4962;DHT22;2496;52.468;13.342;2023-09-19T07:37:10;19.50;99.90
4962;DHT22;2496;52.468;13.342;2023-09-19T07:39:38;19.60;99.90
4962;DHT22;2496;52.468;13.342;2023-09-19T07:42:06;19.70;99.90
4962;DHT22;2496;52.468;13.342;2023-09-19T07:44:35;19.70;99.90
4962;DHT22;2496;52.468;13.342;2023-09-19T07:47:03;19.70;99.90
4962;DHT22;2496;52.468;13.342;2023-09-19T07:49:30;19.80;99.90
4962;DHT22;2496;52.468;13.342;2023-09-19T07:51:57;19.80;99.90
4962;DHT22;2496;52.468;13.342;2023-09-19T07:54:24;19.80;99.90
4962;DHT22;2496;52.468;13.342;2023-09-19T07:56:56;19.80;99.90
4962;DHT22;2496;52.468;13.342;2023-09-19T07:59:23;19.90;99.90
4962;DHT22;2496;52.468;13.342;2023-09-19T08:01:50;20.00;99.90
4962;DHT22;2496;52.468;13.342;2023-09-19T08:04:19;20.00;99.90
4962;DHT22;2496;52.468;13.342;2023-09-19T08:06:46;20.00;99.90
4962;DHT22;2496;52.468;13.342;2023-09-19T08:09:13;20.10;99.90
4962;DHT22;2496;52.468;13.342;2023-09-19T08:11:46;20.20;99.90
4962;DHT22;2496;52.468;13.342;2023-09-19T08:14:13;20.20;99.90
4962;DHT22;2496;52.468;13.342;2023-09-19T08:16:41;20.50;99.90
4962;DHT22;2496;52.468;13.342;2023-09-19T08:19:09;20.70;99.90
4962;DHT22;2496;52.468;13.342;2023-09-19T08:21:38;20.70;99.90
4962;DHT22;2496;52.468;13.342;2023-09-19T08:24:05;20.50;99.90
4962;DHT22;2496;52.468;13.342;2023-09-19T08:26:37;20.40;99.90
4962;DHT22;2496;52.468;13.342;2023-09-19T08:29:04;20.20;99.90
4962;DHT22;2496;52.468;13.342;2023-09-19T08:31:33;20.20;99.90
4962;DHT22;2496;52.468;13.342;2023-09-19T08:34:00;20.20;99.90
4962;DHT22;2496;52.468;13.342;2023-09-19T08:36:27;20.10;99.90
4962;DHT22;2496;52.468;13.342;2023-09-19T08:38:55;20.20;99.90
4962;DHT22;2496;52.468;13.342;2023-09-19T08:41:22;20.40;99.90
4962;DHT22;2496;52.468;13.342;2023-09-19T08:43:49;20.60;99.90
4962;DHT22;2496;52.468;13.342;2023-09-19T08:46:18;20.50;99.90
4962;DHT22;2496;52.468;13.342;2023-09-19T08:48:50;20.40;99.90
4962;DHT22;2496;52.468;13.342;2023-09-19T08:51:27;20.50;99.90
4962;DHT22;2496;52.468;13.342;2023-09-19T08:54:03;20.70;99.90
4962;DHT22;2496;52.468;13.342;2023-09-19T08:56:32;20.90;99.90
4962;DHT22;2496;52.468;13.342;2023-09-19T08:59:02;21.00;99.90
4962;DHT22;2496;52.468;13.342;2023-09-19T09:01:31;21.00;99.90
4962;DHT22;2496;52.468;13.342;2023-09-19T09:03:59;21.00;99.90
4962;DHT22;2496;52.468;13.342;2023-09-19T09:06:28;21.00;99.90
4962;DHT22;2496;52.468;13.342;2023-09-19T09:08:59;21.00;99.90
4962;DHT22;2496;52.468;13.342;2023-09-19T09:11:26;21.20;99.90
4962;DHT22;2496;52.468;13.342;2023-09-19T09:13:54;21.40;99.90
4962;DHT22;2496;52.468;13.342;2023-09-19T09:16:23;21.40;99.90
4962;DHT22;2496;52.468;13.342;2023-09-19T09:18:51;21.40;99.90
4962;DHT22;2496;52.468;13.342;2023-09-19T09:21:20;21.40;99.90
4962;DHT22;2496;52.468;13.342;2023-09-19T09:23:47;21.40;99.90
4962;DHT22;2496;52.468;13.342;2023-09-19T09:26:16;21.30;99.90
4962;DHT22;2496;52.468;13.342;2023-09-19T09:28:45;21.30;99.90
4962;DHT22;2496;52.468;13.342;2023-09-19T09:31:22;21.30;99.90
4962;DHT22;2496;52.468;13.342;2023-09-19T09:33:53;21.20;99.90
4962;DHT22;2496;52.468;13.342;2023-09-19T09:36:33;21.10;99.90
4962;DHT22;2496;52.468;13.342;2023-09-19T09:39:02;21.00;99.90
4962;DHT22;2496;52.468;13.342;2023-09-19T09:41:43;20.90;99.90
4962;DHT22;2496;52.468;13.342;2023-09-19T09:44:14;20.80;99.90
4962;DHT22;2496;52.468;13.342;2023-09-19T09:46:43;20.70;99.90
4962;DHT22;2496;52.468;13.342;2023-09-19T09:49:48;20.60;99.90
4962;DHT22;2496;52.468;13.342;2023-09-19T09:52:20;20.60;99.90
4962;DHT22;2496;52.468;13.342;2023-09-19T09:54:59;20.50;99.90
4962;DHT22;2496;52.468;13.342;2023-09-19T09:57:28;20.40;99.80
4962;DHT22;2496;52.468;13.342;2023-09-19T09:59:57;20.30;99.90
4962;DHT22;2496;52.468;13.342;2023-09-19T10:02:41;20.20;99.90
4962;DHT22;2496;52.468;13.342;2023-09-19T10:05:12;20.10;99.80
4962;DHT22;2496;52.468;13.342;2023-09-19T10:07:46;20.10;99.80
4962;DHT22;2496;52.468;13.342;2023-09-19T10:10:15;20.00;99.90
4962;DHT22;2496;52.468;13.342;2023-09-19T10:13:05;20.10;99.90
4962;DHT22;2496;52.468;13.342;2023-09-19T10:15:34;20.10;99.90
4962;DHT22;2496;52.468;13.342;2023-09-19T10:18:04;20.20;99.70
4962;DHT22;2496;52.468;13.342;2023-09-19T10:20:34;20.40;99.80
4962;DHT22;2496;52.468;13.342;2023-09-19T10:23:06;20.60;99.30
4962;DHT22;2496;52.468;13.342;2023-09-19T10:25:39;20.80;99.10
4962;DHT22;2496;52.468;13.342;2023-09-19T10:28:09;20.90;98.40
4962;DHT22;2496;52.468;13.342;2023-09-19T10:30:38;21.00;98.60
4962;DHT22;2496;52.468;13.342;2023-09-19T10:33:09;21.10;98.00
4962;DHT22;2496;52.468;13.342;2023-09-19T10:35:39;21.30;97.80
4962;DHT22;2496;52.468;13.342;2023-09-19T10:38:09;21.30;97.60
4962;DHT22;2496;52.468;13.342;2023-09-19T10:40:37;21.40;98.00
4962;DHT22;2496;52.468;13.342;2023-09-19T10:43:12;21.50;97.80
4962;DHT22;2496;52.468;13.342;2023-09-19T10:45:41;21.60;97.60
4962;DHT22;2496;52.468;13.342;2023-09-19T10:48:10;21.60;97.20
4962;DHT22;2496;52.468;13.342;2023-09-19T10:50:44;21.60;97.00
4962;DHT22;2496;52.468;13.342;2023-09-19T10:53:13;21.60;95.70
4962;DHT22;2496;52.468;13.342;2023-09-19T10:55:48;21.50;95.60
4962;DHT22;2496;52.468;13.342;2023-09-19T10:58:26;21.30;95.80
4962;DHT22;2496;52.468;13.342;2023-09-19T11:00:56;21.20;95.90
4962;DHT22;2496;52.468;13.342;2023-09-19T11:03:27;21.20;95.80
4962;DHT22;2496;52.468;13.342;2023-09-19T11:06:04;21.20;95.50
4962;DHT22;2496;52.468;13.342;2023-09-19T11:08:54;21.20;95.50
4962;DHT22;2496;52.468;13.342;2023-09-19T11:11:43;21.20;95.70
4962;DHT22;2496;52.468;13.342;2023-09-19T11:14:40;21.10;95.40
4962;DHT22;2496;52.468;13.342;2023-09-19T11:17:42;21.10;95.10
4962;DHT22;2496;52.468;13.342;2023-09-19T11:20:24;21.00;94.50
4962;DHT22;2496;52.468;13.342;2023-09-19T11:23:23;20.90;95.10
4962;DHT22;2496;52.468;13.342;2023-09-19T11:25:58;20.90;95.00
4962;DHT22;2496;52.468;13.342;2023-09-19T11:28:32;20.80;95.20
4962;DHT22;2496;52.468;13.342;2023-09-19T11:31:41;20.80;95.40
4962;DHT22;2496;52.468;13.342;2023-09-19T11:34:44;20.80;95.40
4962;DHT22;2496;52.468;13.342;2023-09-19T11:40:36;21.00;95.60
4962;DHT22;2496;52.468;13.342;2023-09-19T11:43:36;21.10;95.30
4962;DHT22;2496;52.468;13.342;2023-09-19T11:46:09;21.10;94.90
4962;DHT22;2496;52.468;13.342;2023-09-19T11:48:38;21.10;94.80
4962;DHT22;2496;52.468;13.342;2023-09-19T11:51:17;21.10;94.30
4962;DHT22;2496;52.468;13.342;2023-09-19T11:53:50;21.10;93.70
4962;DHT22;2496;52.468;13.342;2023-09-19T11:56:18;21.10;93.80
4962;DHT22;2496;52.468;13.342;2023-09-19T11:58:46;21.20;94.00
4962;DHT22;2496;52.468;13.342;2023-09-19T12:01:22;21.20;93.90
4962;DHT22;2496;52.468;13.342;2023-09-19T12:03:53;21.30;93.80
4962;DHT22;2496;52.468;13.342;2023-09-19T12:06:23;21.30;93.90
4962;DHT22;2496;52.468;13.342;2023-09-19T12:08:50;21.30;93.90
4962;DHT22;2496;52.468;13.342;2023-09-19T12:11:21;21.40;93.90
4962;DHT22;2496;52.468;13.342;2023-09-19T12:13:49;21.40;93.50
4962;DHT22;2496;52.468;13.342;2023-09-19T12:16:19;21.40;93.60
4962;DHT22;2496;52.468;13.342;2023-09-19T12:18:49;21.40;93.30
4962;DHT22;2496;52.468;13.342;2023-09-19T12:21:27;21.40;93.20
4962;DHT22;2496;52.468;13.342;2023-09-19T12:23:59;21.40;93.50
4962;DHT22;2496;52.468;13.342;2023-09-19T12:26:27;21.50;93.20
4962;DHT22;2496;52.468;13.342;2023-09-19T12:28:55;21.50;92.60
4962;DHT22;2496;52.468;13.342;2023-09-19T12:31:25;21.50;92.80
4962;DHT22;2496;52.468;13.342;2023-09-19T12:33:53;21.50;92.90
4962;DHT22;2496;52.468;13.342;2023-09-19T12:36:21;21.50;93.00
4962;DHT22;2496;52.468;13.342;2023-09-19T12:38:54;21.50;93.30
4962;DHT22;2496;52.468;13.342;2023-09-19T12:41:22;21.60;93.20
4962;DHT22;2496;52.468;13.342;2023-09-19T12:43:49;21.70;92.90
4962;DHT22;2496;52.468;13.342;2023-09-19T12:46:20;21.70;92.90
4962;DHT22;2496;52.468;13.342;2023-09-19T12:49:18;21.70;92.60
4962;DHT22;2496;52.468;13.342;2023-09-19T12:51:46;21.60;92.60
4962;DHT22;2496;52.468;13.342;2023-09-19T12:54:13;21.60;92.50
4962;DHT22;2496;52.468;13.342;2023-09-19T12:56:42;21.60;92.70
4962;DHT22;2496;52.468;13.342;2023-09-19T12:59:13;21.60;92.70
4962;DHT22;2496;52.468;13.342;2023-09-19T13:01:40;21.50;92.70
4962;DHT22;2496;52.468;13.342;2023-09-19T13:04:13;21.50;92.90
4962;DHT22;2496;52.468;13.342;2023-09-19T13:06:44;21.40;92.70
4962;DHT22;2496;52.468;13.342;2023-09-19T13:09:11;21.40;92.90
4962;DHT22;2496;52.468;13.342;2023-09-19T13:11:40;21.30;93.00
4962;DHT22;2496;52.468;13.342;2023-09-19T13:14:20;21.30;93.20
4962;DHT22;2496;52.468;13.342;2023-09-19T13:17:00;21.30;93.00
4962;DHT22;2496;52.468;13.342;2023-09-19T13:19:41;21.30;92.90
4962;DHT22;2496;52.468;13.342;2023-09-19T13:22:38;21.30;92.70
4962;DHT22;2496;52.468;13.342;2023-09-19T13:25:07;21.30;92.60
4962;DHT22;2496;52.468;13.342;2023-09-19T13:27:39;21.30;92.70
4962;DHT22;2496;52.468;13.342;2023-09-19T13:30:07;21.30;92.90
4962;DHT22;2496;52.468;13.342;2023-09-19T13:32:34;21.30;92.90
4962;DHT22;2496;52.468;13.342;2023-09-19T13:35:03;21.30;92.90
4962;DHT22;2496;52.468;13.342;2023-09-19T13:37:33;21.30;92.80
4962;DHT22;2496;52.468;13.342;2023-09-19T13:40:01;21.20;92.90
4962;DHT22;2496;52.468;13.342;2023-09-19T13:42:30;21.20;93.30
4962;DHT22;2496;52.468;13.342;2023-09-19T13:44:57;21.20;93.30
4962;DHT22;2496;52.468;13.342;2023-09-19T13:47:24;21.20;93.20
4962;DHT22;2496;52.468;13.342;2023-09-19T13:49:52;21.20;93.10
4962;DHT22;2496;52.468;13.342;2023-09-19T13:52:21;21.20;92.70
4962;DHT22;2496;52.468;13.342;2023-09-19T13:54:49;21.20;92.90
4962;DHT22;2496;52.468;13.342;2023-09-19T13:57:17;21.20;92.90
4962;DHT22;2496;52.468;13.342;2023-09-19T13:59:43;21.20;93.10
4962;DHT22;2496;52.468;13.342;2023-09-19T14:02:11;21.20;92.80
4962;DHT22;2496;52.468;13.342;2023-09-19T14:04:39;21.10;92.70
4962;DHT22;2496;52.468;13.342;2023-09-19T14:07:07;21.10;92.90
4962;DHT22;2496;52.468;13.342;2023-09-19T14:09:37;21.10;92.90
4962;DHT22;2496;52.468;13.342;2023-09-19T14:12:05;21.10;93.10
4962;DHT22;2496;52.468;13.342;2023-09-19T14:14:32;21.10;93.00
4962;DHT22;2496;52.468;13.342;2023-09-19T14:17:00;21.20;93.10
4962;DHT22;2496;52.468;13.342;2023-09-19T14:19:27;21.20;92.90
4962;DHT22;2496;52.468;13.342;2023-09-19T14:21:54;21.20;93.00
4962;DHT22;2496;52.468;13.342;2023-09-19T14:24:22;21.20;92.90
4962;DHT22;2496;52.468;13.342;2023-09-19T14:26:50;21.20;93.20
4962;DHT22;2496;52.468;13.342;2023-09-19T14:29:17;21.20;93.20
4962;DHT22;2496;52.468;13.342;2023-09-19T14:31:45;21.20;93.20
4962;DHT22;2496;52.468;13.342;2023-09-19T14:34:12;21.10;93.30
4962;DHT22;2496;52.468;13.342;2023-09-19T14:36:40;21.10;93.40
4962;DHT22;2496;52.468;13.342;2023-09-19T14:39:07;21.10;93.70
4962;DHT22;2496;52.468;13.342;2023-09-19T14:41:35;21.00;93.40
4962;DHT22;2496;52.468;13.342;2023-09-19T14:44:04;21.00;93.30
4962;DHT22;2496;52.468;13.342;2023-09-19T14:46:31;21.00;93.00
4962;DHT22;2496;52.468;13.342;2023-09-19T14:48:58;21.00;92.90
4962;DHT22;2496;52.468;13.342;2023-09-19T14:51:32;21.00;92.80
4962;DHT22;2496;52.468;13.342;2023-09-19T14:54:03;21.00;92.90
4962;DHT22;2496;52.468;13.342;2023-09-19T14:56:30;21.00;92.80
4962;DHT22;2496;52.468;13.342;2023-09-19T14:58:57;20.90;92.50
4962;DHT22;2496;52.468;13.342;2023-09-19T15:01:25;20.90;92.60
4962;DHT22;2496;52.468;13.342;2023-09-19T15:03:52;20.90;92.70
4962;DHT22;2496;52.468;13.342;2023-09-19T15:06:21;20.90;92.80
4962;DHT22;2496;52.468;13.342;2023-09-19T15:08:48;20.90;92.90
4962;DHT22;2496;52.468;13.342;2023-09-19T15:11:16;20.90;92.90
4962;DHT22;2496;52.468;13.342;2023-09-19T15:13:45;20.80;92.70
4962;DHT22;2496;52.468;13.342;2023-09-19T15:16:12;20.80;92.60
4962;DHT22;2496;52.468;13.342;2023-09-19T15:18:42;20.80;92.50
4962;DHT22;2496;52.468;13.342;2023-09-19T15:21:11;20.80;92.50
4962;DHT22;2496;52.468;13.342;2023-09-19T15:23:40;20.80;92.60
4962;DHT22;2496;52.468;13.342;2023-09-19T15:26:11;20.80;92.60
4962;DHT22;2496;52.468;13.342;2023-09-19T15:28:39;20.80;92.70
4962;DHT22;2496;52.468;13.342;2023-09-19T15:31:07;20.70;92.90
4962;DHT22;2496;52.468;13.342;2023-09-19T15:33:35;20.70;92.90
4962;DHT22;2496;52.468;13.342;2023-09-19T15:36:05;20.60;92.90
4962;DHT22;2496;52.468;13.342;2023-09-19T15:41:15;20.60;93.20
4962;DHT22;2496;52.468;13.342;2023-09-19T15:43:42;20.60;93.40
4962;DHT22;2496;52.468;13.342;2023-09-19T15:46:09;20.60;93.50
4962;DHT22;2496;52.468;13.342;2023-09-19T15:48:36;20.60;93.60
4962;DHT22;2496;52.468;13.342;2023-09-19T15:51:04;20.60;93.80
4962;DHT22;2496;52.468;13.342;2023-09-19T15:53:41;20.60;93.80
4962;DHT22;2496;52.468;13.342;2023-09-19T15:56:08;20.60;93.90
4962;DHT22;2496;52.468;13.342;2023-09-19T15:58:37;20.60;93.80
4962;DHT22;2496;52.468;13.342;2023-09-19T16:01:05;20.60;93.90
4962;DHT22;2496;52.468;13.342;2023-09-19T16:03:34;20.60;94.00
4962;DHT22;2496;52.468;13.342;2023-09-19T16:06:06;20.50;94.10
4962;DHT22;2496;52.468;13.342;2023-09-19T16:08:34;20.50;94.00
4962;DHT22;2496;52.468;13.342;2023-09-19T16:11:01;20.50;94.00